createdAt,value
2023-02-23T00:01:39.808Z,6.15
2023-02-23T00:05:01.363Z,6.07
2023-02-23T00:08:23.690Z,11.25
2023-02-23T00:11:45.296Z,8.52
2023-02-23T00:15:07.733Z,6.55
2023-02-23T00:18:30.205Z,6.50
2023-02-23T00:21:58.891Z,6.00
2023-02-23T00:28:43.747Z,6.07
2023-02-23T00:32:05.683Z,6.53
2023-02-23T00:35:27.621Z,6.35
2023-02-23T00:38:53.145Z,7.45
2023-02-23T00:42:17.000Z,6.38
2023-02-23T00:45:38.572Z,6.75
2023-02-23T00:49:04.872Z,6.78
2023-02-23T00:52:26.488Z,14.73
2023-02-23T00:55:48.086Z,7.45
2023-02-23T00:59:11.000Z,6.55
2023-02-23T01:02:32.668Z,6.18
2023-02-23T01:05:55.273Z,6.40
2023-02-23T01:09:27.928Z,6.20
2023-02-23T01:12:53.816Z,6.32
2023-02-23T01:16:18.050Z,6.15
2023-02-23T01:19:41.951Z,4.95
2023-02-23T01:23:05.117Z,4.88
2023-02-23T01:26:36.314Z,5.78
2023-02-23T01:29:57.901Z,5.20
2023-02-23T01:33:19.480Z,4.57
2023-02-23T01:36:43.579Z,5.07
2023-02-23T01:40:25.757Z,4.43
2023-02-23T01:43:57.443Z,5.22
2023-02-23T01:47:20.487Z,4.85
2023-02-23T01:51:03.664Z,5.25
2023-02-23T01:54:38.099Z,4.60
2023-02-23T01:58:15.415Z,5.47
2023-02-23T02:01:38.593Z,6.13
2023-02-23T02:05:03.201Z,5.20
2023-02-23T02:08:25.064Z,5.10
2023-02-23T02:11:54.142Z,4.95
2023-02-23T02:15:18.784Z,4.82
2023-02-23T02:18:54.992Z,5.30
2023-02-23T02:22:42.791Z,4.95
2023-02-23T02:26:54.106Z,4.90
2023-02-23T02:30:47.700Z,5.20
2023-02-23T02:34:42.608Z,4.88
2023-02-23T02:38:29.439Z,14.02
2023-02-23T02:42:13.881Z,5.40
2023-02-23T02:46:01.430Z,5.20
2023-02-23T02:49:27.809Z,5.45
2023-02-23T02:52:58.610Z,4.93
2023-02-23T02:56:23.440Z,4.85
2023-02-23T03:00:06.557Z,5.00
2023-02-23T03:04:06.540Z,5.13
2023-02-23T03:08:04.006Z,5.05
2023-02-23T03:11:54.981Z,5.40
2023-02-23T03:16:01.123Z,6.18
2023-02-23T03:19:44.179Z,5.22
2023-02-23T03:23:31.333Z,5.15
2023-02-23T03:27:18.538Z,5.43
2023-02-23T03:31:17.693Z,5.88
2023-02-23T03:35:10.760Z,5.47
2023-02-23T03:39:00.457Z,5.72
2023-02-23T03:46:29.241Z,6.27
2023-02-23T03:50:09.965Z,5.90
2023-02-23T03:54:17.257Z,5.63
2023-02-23T03:58:01.698Z,6.50
2023-02-23T04:01:46.225Z,21.98
2023-02-23T04:05:33.521Z,6.72
2023-02-23T04:09:20.302Z,10.65
2023-02-23T04:13:03.140Z,9.60
2023-02-23T04:16:25.058Z,6.97
2023-02-23T04:19:55.204Z,7.93
2023-02-23T04:23:19.040Z,6.93
2023-02-23T04:26:40.621Z,7.03
2023-02-23T04:30:04.463Z,6.90
2023-02-23T04:33:27.267Z,6.60
2023-02-23T04:36:51.317Z,6.55
2023-02-23T04:40:13.383Z,7.15
2023-02-23T04:43:35.008Z,7.28
2023-02-23T04:47:00.169Z,7.60
2023-02-23T04:50:24.118Z,7.35
2023-02-23T04:53:47.961Z,6.75
2023-02-23T04:57:10.267Z,6.82
2023-02-23T05:00:34.123Z,9.02
2023-02-23T05:04:00.562Z,7.38
2023-02-23T05:07:24.472Z,6.97
2023-02-23T05:10:46.303Z,7.10
2023-02-23T05:14:07.978Z,6.45
2023-02-23T05:17:31.990Z,6.88
2023-02-23T05:21:06.655Z,7.10
2023-02-23T05:24:28.235Z,7.18
2023-02-23T05:27:52.319Z,7.90
2023-02-23T05:31:16.507Z,7.45
2023-02-23T05:34:39.237Z,7.90
2023-02-23T05:38:00.775Z,7.55
2023-02-23T05:41:25.815Z,7.35
2023-02-23T05:44:49.600Z,8.00
2023-02-23T05:48:12.922Z,8.63
2023-02-23T05:51:36.993Z,7.55
2023-02-23T05:54:58.715Z,7.68
2023-02-23T05:58:20.421Z,7.88
2023-02-23T06:01:44.288Z,8.13
2023-02-23T06:05:06.313Z,8.68
2023-02-23T06:08:30.166Z,7.93
2023-02-23T06:11:51.843Z,7.30
2023-02-23T06:15:16.191Z,7.35
2023-02-23T06:18:37.856Z,7.63
2023-02-23T06:22:04.497Z,7.03
2023-02-23T06:25:26.137Z,8.57
2023-02-23T06:28:47.816Z,7.67
2023-02-23T06:32:09.450Z,7.68
2023-02-23T06:35:32.222Z,6.68
2023-02-23T06:38:58.957Z,7.50
2023-02-23T06:42:22.909Z,6.88
2023-02-23T06:45:46.646Z,6.95
2023-02-23T06:49:08.535Z,16.45
2023-02-23T06:52:32.684Z,22.37
2023-02-23T06:55:54.275Z,7.40
2023-02-23T06:59:18.058Z,7.70
2023-02-23T07:02:42.164Z,7.37
2023-02-23T07:06:05.758Z,7.72
2023-02-23T07:09:30.716Z,7.38
2023-02-23T07:12:54.527Z,7.53
2023-02-23T07:16:18.511Z,6.88
2023-02-23T07:19:44.121Z,6.75
2023-02-23T07:23:06.345Z,6.87
2023-02-23T07:26:30.858Z,6.75
2023-02-23T07:29:55.032Z,7.17
2023-02-23T07:33:16.994Z,6.40
2023-02-23T07:36:38.593Z,7.43
2023-02-23T07:40:02.691Z,6.63
2023-02-23T07:43:24.401Z,6.80
2023-02-23T07:46:46.545Z,6.32
2023-02-23T07:50:10.260Z,6.07
2023-02-23T07:53:31.909Z,5.50
2023-02-23T07:56:53.524Z,6.20
2023-02-23T08:00:15.495Z,6.75
2023-02-23T08:03:37.252Z,6.40
2023-02-23T08:07:01.474Z,6.35
2023-02-23T08:10:23.167Z,6.50
2023-02-23T08:13:44.794Z,5.90
2023-02-23T08:17:06.540Z,5.97
2023-02-23T08:20:28.272Z,6.90
2023-02-23T08:23:50.611Z,6.60
2023-02-23T08:27:13.093Z,6.28
2023-02-23T08:30:35.182Z,11.43
2023-02-23T08:33:58.918Z,6.03
2023-02-23T08:37:20.510Z,6.40
2023-02-23T08:40:43.312Z,5.80
2023-02-23T08:44:05.132Z,6.05
2023-02-23T08:47:29.984Z,6.10
2023-02-23T08:50:56.958Z,26.00
2023-02-23T08:54:20.362Z,6.85
2023-02-23T08:57:42.321Z,6.18
2023-02-23T09:01:05.048Z,6.40
2023-02-23T09:04:26.768Z,5.78
2023-02-23T09:07:49.234Z,5.80
2023-02-23T09:11:13.060Z,5.65
2023-02-23T09:14:37.232Z,5.97
2023-02-23T09:18:02.808Z,5.60
2023-02-23T09:21:26.417Z,5.45
2023-02-23T09:24:48.696Z,5.53
2023-02-23T09:28:15.147Z,6.20
2023-02-23T09:31:38.646Z,6.13
2023-02-23T09:35:02.495Z,5.72
2023-02-23T09:38:30.421Z,6.07
2023-02-23T09:42:09.629Z,5.93
2023-02-23T09:46:21.804Z,5.85
2023-02-23T09:49:45.513Z,6.88
2023-02-23T09:53:45.187Z,6.35
2023-02-23T09:57:14.663Z,5.78
2023-02-23T10:00:44.264Z,6.85
2023-02-23T10:04:20.991Z,6.35
2023-02-23T10:07:54.176Z,5.88
2023-02-23T10:11:29.202Z,5.60
2023-02-23T10:15:01.805Z,5.97
2023-02-23T10:19:18.921Z,6.90
2023-02-23T10:22:41.691Z,6.85
2023-02-23T10:26:08.705Z,5.85
2023-02-23T10:29:43.299Z,5.90
2023-02-23T10:33:13.796Z,5.55
2023-02-23T10:36:44.468Z,6.38
2023-02-23T10:40:07.321Z,5.30
2023-02-23T10:43:29.098Z,6.20
2023-02-23T10:46:56.412Z,6.10
2023-02-23T10:50:19.257Z,6.07
2023-02-23T10:53:43.516Z,6.50
2023-02-23T10:57:07.793Z,5.78
2023-02-23T11:00:33.185Z,6.18
2023-02-23T11:04:05.471Z,6.30
2023-02-23T11:07:32.399Z,6.85
2023-02-23T11:11:02.100Z,6.40
2023-02-23T11:14:32.945Z,6.20
2023-02-23T11:18:05.089Z,6.88
2023-02-23T11:21:29.777Z,7.07
2023-02-23T11:24:52.372Z,7.13
2023-02-23T11:28:41.737Z,6.13
2023-02-23T11:32:16.784Z,7.55
2023-02-23T11:35:39.064Z,6.32
2023-02-23T11:39:23.667Z,7.05
2023-02-23T11:42:57.431Z,8.10
2023-02-23T11:46:24.188Z,6.72
2023-02-23T11:49:47.991Z,6.68
2023-02-23T11:53:21.230Z,6.72
2023-02-23T11:56:50.948Z,7.05
2023-02-23T12:00:24.835Z,6.47
2023-02-23T12:03:57.572Z,6.75
2023-02-23T12:07:27.149Z,5.95
2023-02-23T12:10:54.023Z,6.25
2023-02-23T12:14:27.833Z,6.53
2023-02-23T12:17:55.599Z,6.55
2023-02-23T12:21:34.747Z,6.45
2023-02-23T12:25:14.283Z,7.30
2023-02-23T12:28:40.546Z,6.43
2023-02-23T12:32:13.241Z,6.97
2023-02-23T12:35:57.568Z,6.90
2023-02-23T12:39:31.080Z,6.60
2023-02-23T12:43:15.363Z,7.10
2023-02-23T12:46:47.593Z,7.93
2023-02-23T12:50:17.320Z,6.90
2023-02-23T12:53:45.096Z,7.60
2023-02-23T12:57:27.925Z,6.38
2023-02-23T13:01:04.595Z,7.30
2023-02-23T13:04:56.198Z,7.00
2023-02-23T13:08:51.477Z,6.88
2023-02-23T13:12:28.568Z,6.38
2023-02-23T13:15:57.333Z,22.48
2023-02-23T13:19:34.797Z,7.95
2023-02-23T13:23:17.892Z,6.57
2023-02-23T13:26:59.303Z,5.70
2023-02-23T13:30:22.508Z,6.00
2023-02-23T13:33:44.634Z,6.80
2023-02-23T13:37:11.820Z,6.10
2023-02-23T13:40:37.198Z,6.22
2023-02-23T13:44:18.668Z,5.90
2023-02-23T13:47:56.101Z,6.32
2023-02-23T13:51:29.729Z,6.43
2023-02-23T13:55:03.511Z,6.80
2023-02-23T13:58:33.544Z,5.85
2023-02-23T14:01:59.003Z,7.03
2023-02-23T14:05:31.668Z,7.15
2023-02-23T14:09:02.926Z,6.82
2023-02-23T14:12:34.845Z,6.47
2023-02-23T14:16:18.817Z,6.40
2023-02-23T14:20:27.988Z,5.65
2023-02-23T14:27:41.552Z,6.07
2023-02-23T14:31:21.358Z,6.60
2023-02-23T14:34:57.016Z,6.45
2023-02-23T14:38:47.022Z,6.28
2023-02-23T14:42:15.647Z,6.53
2023-02-23T14:45:39.612Z,7.40
2023-02-23T14:49:08.012Z,7.50
2023-02-23T14:52:36.843Z,7.15
2023-02-23T14:56:01.135Z,6.65
2023-02-23T14:59:27.522Z,7.07
2023-02-23T15:03:09.154Z,6.53
2023-02-23T15:06:31.320Z,12.85
2023-02-23T15:09:55.993Z,8.52
2023-02-23T15:13:28.809Z,7.10
2023-02-23T15:16:53.703Z,6.50
2023-02-23T15:20:23.553Z,6.72
2023-02-23T15:23:50.890Z,6.75
2023-02-23T15:27:22.877Z,7.28
2023-02-23T15:30:47.290Z,7.15
2023-02-23T15:34:11.288Z,7.63
2023-02-23T15:37:38.447Z,6.55
2023-02-23T15:41:03.954Z,6.53
2023-02-23T15:44:43.801Z,7.30
2023-02-23T15:48:11.569Z,6.70
2023-02-23T15:51:36.914Z,7.15
2023-02-23T15:55:07.990Z,6.82
2023-02-23T15:58:44.513Z,6.22
2023-02-23T16:02:18.031Z,9.13
2023-02-23T16:06:02.033Z,7.32
2023-02-23T16:09:32.086Z,6.90
2023-02-23T16:12:58.423Z,7.53
2023-02-23T16:16:25.694Z,6.85
2023-02-23T16:19:50.179Z,7.35
2023-02-23T16:23:22.221Z,8.20
2023-02-23T16:26:53.773Z,10.43
2023-02-23T16:30:23.469Z,8.93
2023-02-23T16:33:48.652Z,8.88
2023-02-23T16:37:18.989Z,9.35
2023-02-23T16:40:41.584Z,8.27
2023-02-23T16:44:05.835Z,9.05
2023-02-23T16:47:40.462Z,8.75
2023-02-23T16:51:03.133Z,8.48
2023-02-23T16:54:30.790Z,8.20
2023-02-23T16:57:59.978Z,13.50
2023-02-23T17:01:24.247Z,58.42
2023-02-23T17:04:49.927Z,15.52
2023-02-23T17:08:11.621Z,8.63
2023-02-23T17:11:33.221Z,9.48
2023-02-23T17:14:57.051Z,7.95
2023-02-23T17:18:20.809Z,8.38
2023-02-23T17:21:48.768Z,8.27
2023-02-23T17:25:11.160Z,10.90
2023-02-23T17:28:35.481Z,10.98
2023-02-23T17:32:00.006Z,16.23
2023-02-23T17:35:22.074Z,16.30
2023-02-23T17:38:46.104Z,15.27
2023-02-23T17:42:07.797Z,14.13
2023-02-23T17:45:29.455Z,17.20
2023-02-23T17:48:56.358Z,16.70
2023-02-23T17:52:19.115Z,16.58
2023-02-23T17:55:40.715Z,19.35
2023-02-23T17:59:05.136Z,16.38
2023-02-23T18:02:27.201Z,15.75
2023-02-23T18:05:48.851Z,14.85
2023-02-23T18:09:15.745Z,15.48
2023-02-23T18:12:37.364Z,17.08
2023-02-23T18:16:01.546Z,17.10
2023-02-23T18:19:24.357Z,19.17
2023-02-23T18:22:45.972Z,17.52
2023-02-23T18:26:20.666Z,18.17
2023-02-23T18:29:42.257Z,18.73
2023-02-23T18:33:09.059Z,17.65
2023-02-23T18:36:35.377Z,16.88
2023-02-23T18:39:59.347Z,18.85
2023-02-23T18:43:20.983Z,18.00
2023-02-23T18:46:44.405Z,17.25
2023-02-23T18:50:06.503Z,17.40
2023-02-23T18:53:30.652Z,18.58
2023-02-23T18:56:55.831Z,17.45
2023-02-23T19:00:20.818Z,17.73
2023-02-23T19:03:45.051Z,18.27
2023-02-23T19:07:09.123Z,17.63
2023-02-23T19:10:30.715Z,17.15
2023-02-23T19:13:57.196Z,18.85
2023-02-23T19:17:21.471Z,15.50
2023-02-23T19:20:43.370Z,16.17
2023-02-23T19:24:06.471Z,18.15
2023-02-23T19:27:28.152Z,16.48
2023-02-23T19:31:00.324Z,15.60
2023-02-23T19:34:21.921Z,14.15
2023-02-23T19:37:52.197Z,13.18
2023-02-23T19:41:19.152Z,13.93
2023-02-23T19:44:43.220Z,13.57
2023-02-23T19:48:05.357Z,15.05
2023-02-23T19:51:27.542Z,15.60
2023-02-23T19:54:49.431Z,14.07
2023-02-23T19:58:14.768Z,13.80
2023-02-23T20:01:37.365Z,14.25
2023-02-23T20:04:58.998Z,13.50
2023-02-23T20:08:22.934Z,14.70
2023-02-23T20:11:44.592Z,13.20
2023-02-23T20:15:06.837Z,15.35
2023-02-23T20:18:28.795Z,14.68
2023-02-23T20:21:56.507Z,14.98
2023-02-23T20:25:21.101Z,14.23
2023-02-23T20:28:42.887Z,15.00
2023-02-23T20:32:05.549Z,15.52
2023-02-23T20:35:27.734Z,16.42
2023-02-23T20:38:52.109Z,16.15
2023-02-23T20:42:13.714Z,16.00
2023-02-23T20:45:35.347Z,15.95
2023-02-23T20:48:57.259Z,15.23
2023-02-23T20:52:19.006Z,14.80
2023-02-23T20:55:41.607Z,13.80
2023-02-23T20:59:04.663Z,20.30
2023-02-23T21:02:28.479Z,15.77
2023-02-23T21:05:55.776Z,20.25
2023-02-23T21:09:19.605Z,15.98
2023-02-23T21:12:41.203Z,15.27
2023-02-23T21:16:03.271Z,13.20
2023-02-23T21:19:30.906Z,14.23
2023-02-23T21:22:56.464Z,14.30
2023-02-23T21:26:21.690Z,13.18
2023-02-23T21:29:43.843Z,12.35
2023-02-23T21:33:05.670Z,13.70
2023-02-23T21:36:29.865Z,13.50
2023-02-23T21:39:51.513Z,12.75
2023-02-23T21:43:15.670Z,12.93
2023-02-23T21:46:37.392Z,13.02
2023-02-23T21:49:59.045Z,13.82
2023-02-23T21:53:20.674Z,15.35
2023-02-23T21:56:44.814Z,16.85
2023-02-23T22:00:08.091Z,15.98
2023-02-23T22:03:31.300Z,14.45
2023-02-23T22:06:52.913Z,13.27
2023-02-23T22:10:14.895Z,12.55
2023-02-23T22:13:42.413Z,11.70
2023-02-23T22:17:06.325Z,11.77
2023-02-23T22:20:28.138Z,13.05
2023-02-23T22:23:50.594Z,13.07
2023-02-23T22:27:14.083Z,11.82
2023-02-23T22:30:41.189Z,11.05
2023-02-23T22:34:06.392Z,11.40
2023-02-23T22:37:29.982Z,11.10
2023-02-23T22:40:51.990Z,10.98
2023-02-23T22:44:16.882Z,10.45
2023-02-23T22:47:40.894Z,11.35
2023-02-23T22:51:05.255Z,10.60
2023-02-23T22:54:27.465Z,10.02
2023-02-23T22:57:49.402Z,9.95
2023-02-23T23:01:11.916Z,10.07
2023-02-23T23:04:38.690Z,9.50
2023-02-23T23:08:02.324Z,10.48
2023-02-23T23:11:27.056Z,10.30
2023-02-23T23:14:48.821Z,9.63
2023-02-23T23:18:14.489Z,9.18
2023-02-23T23:21:36.160Z,8.77
2023-02-23T23:25:00.264Z,9.57
2023-02-23T23:28:24.455Z,9.80
2023-02-23T23:31:51.782Z,9.90
2023-02-23T23:35:16.048Z,9.13
2023-02-23T23:38:38.612Z,9.35
2023-02-23T23:42:01.895Z,10.52
2023-02-23T23:45:24.495Z,10.30
2023-02-23T23:48:54.336Z,12.07
2023-02-23T23:52:18.484Z,11.80
2023-02-23T23:55:40.065Z,9.80
2023-02-23T23:59:13.323Z,9.73
